sensor_id;sensor_type;location;lat;lon;timestamp;P1;durP1;ratioP1;P2;durP2;ratioP2
22282;SDS011;11310;51.528;21.204;2023-01-28T00:01:15;26.17;;;10.95;;
22282;SDS011;11310;51.528;21.204;2023-01-28T00:03:44;26.67;;;10.63;;
22282;SDS011;11310;51.528;21.204;2023-01-28T00:06:16;25.48;;;11.02;;
22282;SDS011;11310;51.528;21.204;2023-01-28T00:08:45;24.35;;;9.68;;
22282;SDS011;11310;51.528;21.204;2023-01-28T00:11:16;26.80;;;10.38;;
22282;SDS011;11310;51.528;21.204;2023-01-28T00:13:44;24.17;;;10.00;;
22282;SDS011;11310;51.528;21.204;2023-01-28T00:16:13;24.70;;;10.35;;
22282;SDS011;11310;51.528;21.204;2023-01-28T00:18:41;22.75;;;10.38;;
22282;SDS011;11310;51.528;21.204;2023-01-28T00:21:10;25.90;;;10.77;;
22282;SDS011;11310;51.528;21.204;2023-01-28T00:23:41;23.53;;;10.83;;
22282;SDS011;11310;51.528;21.204;2023-01-28T00:26:16;26.02;;;10.68;;
22282;SDS011;11310;51.528;21.204;2023-01-28T00:28:44;24.33;;;10.25;;
22282;SDS011;11310;51.528;21.204;2023-01-28T00:31:14;21.20;;;9.25;;
22282;SDS011;11310;51.528;21.204;2023-01-28T00:33:44;27.92;;;10.75;;
22282;SDS011;11310;51.528;21.204;2023-01-28T00:36:13;24.73;;;10.15;;
22282;SDS011;11310;51.528;21.204;2023-01-28T00:38:43;26.88;;;10.85;;
22282;SDS011;11310;51.528;21.204;2023-01-28T00:41:19;24.95;;;10.68;;
22282;SDS011;11310;51.528;21.204;2023-01-28T00:43:50;28.27;;;10.45;;
22282;SDS011;11310;51.528;21.204;2023-01-28T00:46:19;28.35;;;10.48;;
22282;SDS011;11310;51.528;21.204;2023-01-28T00:48:49;24.27;;;9.70;;
22282;SDS011;11310;51.528;21.204;2023-01-28T00:51:19;22.73;;;9.23;;
22282;SDS011;11310;51.528;21.204;2023-01-28T00:53:49;25.27;;;10.02;;
22282;SDS011;11310;51.528;21.204;2023-01-28T00:56:19;22.52;;;10.35;;
22282;SDS011;11310;51.528;21.204;2023-01-28T00:58:48;23.60;;;10.27;;
22282;SDS011;11310;51.528;21.204;2023-01-28T01:01:18;21.38;;;9.13;;
22282;SDS011;11310;51.528;21.204;2023-01-28T01:06:23;27.42;;;9.95;;
22282;SDS011;11310;51.528;21.204;2023-01-28T01:08:52;21.58;;;9.15;;
22282;SDS011;11310;51.528;21.204;2023-01-28T01:11:21;24.50;;;9.85;;
22282;SDS011;11310;51.528;21.204;2023-01-28T01:13:52;21.97;;;9.53;;
22282;SDS011;11310;51.528;21.204;2023-01-28T01:16:23;20.10;;;8.80;;
22282;SDS011;11310;51.528;21.204;2023-01-28T01:18:54;25.00;;;10.00;;
22282;SDS011;11310;51.528;21.204;2023-01-28T01:21:24;24.30;;;10.35;;
22282;SDS011;11310;51.528;21.204;2023-01-28T01:23:54;24.55;;;10.60;;
22282;SDS011;11310;51.528;21.204;2023-01-28T01:26:24;23.25;;;9.80;;
22282;SDS011;11310;51.528;21.204;2023-01-28T01:28:56;23.35;;;10.50;;
22282;SDS011;11310;51.528;21.204;2023-01-28T01:31:24;23.67;;;10.55;;
22282;SDS011;11310;51.528;21.204;2023-01-28T01:33:52;21.80;;;9.75;;
22282;SDS011;11310;51.528;21.204;2023-01-28T01:36:22;30.15;;;10.43;;
22282;SDS011;11310;51.528;21.204;2023-01-28T01:38:52;27.35;;;10.20;;
22282;SDS011;11310;51.528;21.204;2023-01-28T01:41:22;21.35;;;9.77;;
22282;SDS011;11310;51.528;21.204;2023-01-28T01:43:55;23.58;;;10.75;;
22282;SDS011;11310;51.528;21.204;2023-01-28T01:46:28;25.33;;;10.75;;
22282;SDS011;11310;51.528;21.204;2023-01-28T01:49:05;21.83;;;9.52;;
22282;SDS011;11310;51.528;21.204;2023-01-28T01:51:40;21.98;;;10.18;;
22282;SDS011;11310;51.528;21.204;2023-01-28T01:54:10;23.17;;;9.77;;
22282;SDS011;11310;51.528;21.204;2023-01-28T01:56:40;21.38;;;9.45;;
22282;SDS011;11310;51.528;21.204;2023-01-28T01:59:11;25.75;;;11.27;;
22282;SDS011;11310;51.528;21.204;2023-01-28T02:01:43;24.67;;;10.10;;
22282;SDS011;11310;51.528;21.204;2023-01-28T02:04:14;24.00;;;11.38;;
22282;SDS011;11310;51.528;21.204;2023-01-28T02:06:48;24.77;;;10.20;;
22282;SDS011;11310;51.528;21.204;2023-01-28T02:09:22;28.23;;;10.90;;
22282;SDS011;11310;51.528;21.204;2023-01-28T02:11:53;25.75;;;11.68;;
22282;SDS011;11310;51.528;21.204;2023-01-28T02:14:23;27.15;;;10.82;;
22282;SDS011;11310;51.528;21.204;2023-01-28T02:16:57;22.17;;;10.20;;
22282;SDS011;11310;51.528;21.204;2023-01-28T02:19:29;28.27;;;11.05;;
22282;SDS011;11310;51.528;21.204;2023-01-28T02:25:25;24.33;;;10.90;;
22282;SDS011;11310;51.528;21.204;2023-01-28T02:28:10;25.92;;;10.00;;
22282;SDS011;11310;51.528;21.204;2023-01-28T02:30:47;26.80;;;10.55;;
22282;SDS011;11310;51.528;21.204;2023-01-28T02:33:21;24.65;;;10.65;;
22282;SDS011;11310;51.528;21.204;2023-01-28T02:35:56;27.27;;;10.60;;
22282;SDS011;11310;51.528;21.204;2023-01-28T02:38:32;24.42;;;10.23;;
22282;SDS011;11310;51.528;21.204;2023-01-28T02:41:10;27.10;;;11.68;;
22282;SDS011;11310;51.528;21.204;2023-01-28T02:43:45;24.02;;;10.02;;
22282;SDS011;11310;51.528;21.204;2023-01-28T02:46:18;22.73;;;10.18;;
22282;SDS011;11310;51.528;21.204;2023-01-28T02:49:08;26.50;;;10.77;;
22282;SDS011;11310;51.528;21.204;2023-01-28T02:51:52;20.00;;;9.18;;
22282;SDS011;11310;51.528;21.204;2023-01-28T02:54:32;23.25;;;9.88;;
22282;SDS011;11310;51.528;21.204;2023-01-28T02:57:08;25.80;;;10.18;;
22282;SDS011;11310;51.528;21.204;2023-01-28T02:59:48;25.58;;;11.00;;
22282;SDS011;11310;51.528;21.204;2023-01-28T03:02:25;25.70;;;10.65;;
22282;SDS011;11310;51.528;21.204;2023-01-28T03:04:58;27.85;;;10.95;;
22282;SDS011;11310;51.528;21.204;2023-01-28T03:07:32;27.30;;;11.02;;
22282;SDS011;11310;51.528;21.204;2023-01-28T03:10:04;28.92;;;11.32;;
22282;SDS011;11310;51.528;21.204;2023-01-28T03:12:38;26.58;;;11.48;;
22282;SDS011;11310;51.528;21.204;2023-01-28T03:15:28;26.17;;;11.07;;
22282;SDS011;11310;51.528;21.204;2023-01-28T03:18:20;33.83;;;11.25;;
22282;SDS011;11310;51.528;21.204;2023-01-28T03:21:10;27.30;;;12.10;;
22282;SDS011;11310;51.528;21.204;2023-01-28T03:24:02;30.17;;;13.30;;
22282;SDS011;11310;51.528;21.204;2023-01-28T03:26:53;27.25;;;12.25;;
22282;SDS011;11310;51.528;21.204;2023-01-28T03:29:54;28.73;;;11.57;;
22282;SDS011;11310;51.528;21.204;2023-01-28T03:32:45;28.40;;;12.45;;
22282;SDS011;11310;51.528;21.204;2023-01-28T03:35:32;31.33;;;12.77;;
22282;SDS011;11310;51.528;21.204;2023-01-28T03:38:21;32.92;;;13.85;;
22282;SDS011;11310;51.528;21.204;2023-01-28T03:40:51;33.25;;;13.70;;
22282;SDS011;11310;51.528;21.204;2023-01-28T03:43:23;32.33;;;13.65;;
22282;SDS011;11310;51.528;21.204;2023-01-28T03:45:52;32.72;;;14.10;;
22282;SDS011;11310;51.528;21.204;2023-01-28T03:48:23;33.33;;;13.95;;
22282;SDS011;11310;51.528;21.204;2023-01-28T03:50:55;33.03;;;14.23;;
22282;SDS011;11310;51.528;21.204;2023-01-28T03:53:28;30.60;;;13.32;;
22282;SDS011;11310;51.528;21.204;2023-01-28T03:55:57;32.22;;;13.32;;
22282;SDS011;11310;51.528;21.204;2023-01-28T03:58:25;34.10;;;14.30;;
22282;SDS011;11310;51.528;21.204;2023-01-28T04:01:13;34.45;;;13.95;;
22282;SDS011;11310;51.528;21.204;2023-01-28T04:03:43;32.33;;;14.52;;
22282;SDS011;11310;51.528;21.204;2023-01-28T04:06:15;36.35;;;15.10;;
22282;SDS011;11310;51.528;21.204;2023-01-28T04:08:55;35.03;;;15.07;;
22282;SDS011;11310;51.528;21.204;2023-01-28T04:11:32;38.72;;;15.38;;
22282;SDS011;11310;51.528;21.204;2023-01-28T04:14:03;39.30;;;15.52;;
22282;SDS011;11310;51.528;21.204;2023-01-28T04:16:40;40.55;;;15.80;;
22282;SDS011;11310;51.528;21.204;2023-01-28T04:19:11;41.38;;;17.08;;
22282;SDS011;11310;51.528;21.204;2023-01-28T04:21:41;41.03;;;16.60;;
22282;SDS011;11310;51.528;21.204;2023-01-28T04:24:09;41.67;;;17.17;;
22282;SDS011;11310;51.528;21.204;2023-01-28T04:26:38;39.60;;;16.95;;
22282;SDS011;11310;51.528;21.204;2023-01-28T04:29:07;43.65;;;17.45;;
22282;SDS011;11310;51.528;21.204;2023-01-28T04:31:36;42.47;;;17.08;;
22282;SDS011;11310;51.528;21.204;2023-01-28T04:34:19;41.47;;;18.00;;
22282;SDS011;11310;51.528;21.204;2023-01-28T04:37:19;41.95;;;17.33;;
22282;SDS011;11310;51.528;21.204;2023-01-28T04:40:23;42.50;;;17.63;;
22282;SDS011;11310;51.528;21.204;2023-01-28T04:42:55;42.75;;;18.42;;
22282;SDS011;11310;51.528;21.204;2023-01-28T04:45:36;43.28;;;17.80;;
22282;SDS011;11310;51.528;21.204;2023-01-28T04:48:20;44.72;;;18.45;;
22282;SDS011;11310;51.528;21.204;2023-01-28T04:51:13;44.13;;;18.98;;
22282;SDS011;11310;51.528;21.204;2023-01-28T04:53:54;45.03;;;19.30;;
22282;SDS011;11310;51.528;21.204;2023-01-28T04:56:25;44.92;;;17.88;;
22282;SDS011;11310;51.528;21.204;2023-01-28T04:58:54;47.65;;;19.20;;
22282;SDS011;11310;51.528;21.204;2023-01-28T05:01:23;41.85;;;17.40;;
22282;SDS011;11310;51.528;21.204;2023-01-28T05:03:52;43.83;;;18.90;;
22282;SDS011;11310;51.528;21.204;2023-01-28T05:06:26;48.42;;;19.08;;
22282;SDS011;11310;51.528;21.204;2023-01-28T05:09:01;42.00;;;17.88;;
22282;SDS011;11310;51.528;21.204;2023-01-28T05:11:30;40.45;;;17.38;;
22282;SDS011;11310;51.528;21.204;2023-01-28T05:14:02;41.38;;;18.45;;
22282;SDS011;11310;51.528;21.204;2023-01-28T05:16:39;44.92;;;18.80;;
22282;SDS011;11310;51.528;21.204;2023-01-28T05:19:08;49.80;;;20.55;;
22282;SDS011;11310;51.528;21.204;2023-01-28T05:21:44;45.78;;;19.80;;
22282;SDS011;11310;51.528;21.204;2023-01-28T05:24:30;44.72;;;18.55;;
22282;SDS011;11310;51.528;21.204;2023-01-28T05:27:00;48.45;;;19.02;;
22282;SDS011;11310;51.528;21.204;2023-01-28T05:29:29;47.88;;;19.55;;
22282;SDS011;11310;51.528;21.204;2023-01-28T05:31:58;46.28;;;18.40;;
22282;SDS011;11310;51.528;21.204;2023-01-28T05:34:28;43.55;;;18.63;;
22282;SDS011;11310;51.528;21.204;2023-01-28T05:37:01;39.92;;;17.08;;
22282;SDS011;11310;51.528;21.204;2023-01-28T05:39:31;42.55;;;18.45;;
22282;SDS011;11310;51.528;21.204;2023-01-28T05:42:00;40.05;;;18.15;;
22282;SDS011;11310;51.528;21.204;2023-01-28T05:44:31;41.83;;;17.17;;
22282;SDS011;11310;51.528;21.204;2023-01-28T05:47:25;42.33;;;17.80;;
22282;SDS011;11310;51.528;21.204;2023-01-28T05:50:14;46.67;;;18.88;;
22282;SDS011;11310;51.528;21.204;2023-01-28T05:53:05;41.80;;;17.88;;
22282;SDS011;11310;51.528;21.204;2023-01-28T05:55:35;41.75;;;17.42;;
22282;SDS011;11310;51.528;21.204;2023-01-28T05:58:05;45.33;;;19.20;;
22282;SDS011;11310;51.528;21.204;2023-01-28T06:00:34;39.38;;;16.42;;
22282;SDS011;11310;51.528;21.204;2023-01-28T06:03:04;40.95;;;17.58;;
22282;SDS011;11310;51.528;21.204;2023-01-28T06:05:34;42.63;;;17.98;;
22282;SDS011;11310;51.528;21.204;2023-01-28T06:08:04;39.75;;;16.63;;
22282;SDS011;11310;51.528;21.204;2023-01-28T06:10:33;45.05;;;18.95;;
22282;SDS011;11310;51.528;21.204;2023-01-28T06:13:02;39.53;;;16.75;;
22282;SDS011;11310;51.528;21.204;2023-01-28T06:15:39;44.63;;;19.10;;
22282;SDS011;11310;51.528;21.204;2023-01-28T06:18:37;43.80;;;17.98;;
22282;SDS011;11310;51.528;21.204;2023-01-28T06:21:07;41.40;;;18.88;;
22282;SDS011;11310;51.528;21.204;2023-01-28T06:23:37;48.10;;;18.63;;
22282;SDS011;11310;51.528;21.204;2023-01-28T06:26:07;46.80;;;17.48;;
22282;SDS011;11310;51.528;21.204;2023-01-28T06:28:39;38.25;;;18.13;;
22282;SDS011;11310;51.528;21.204;2023-01-28T06:31:07;43.60;;;18.30;;
22282;SDS011;11310;51.528;21.204;2023-01-28T06:33:36;39.42;;;17.60;;
22282;SDS011;11310;51.528;21.204;2023-01-28T06:36:04;42.60;;;17.13;;
22282;SDS011;11310;51.528;21.204;2023-01-28T06:38:33;40.10;;;16.65;;
22282;SDS011;11310;51.528;21.204;2023-01-28T06:41:03;44.47;;;18.88;;
22282;SDS011;11310;51.528;21.204;2023-01-28T06:43:33;42.45;;;18.02;;
22282;SDS011;11310;51.528;21.204;2023-01-28T06:46:02;45.67;;;18.88;;
22282;SDS011;11310;51.528;21.204;2023-01-28T06:48:30;46.17;;;18.45;;
22282;SDS011;11310;51.528;21.204;2023-01-28T06:50:59;44.00;;;18.90;;
22282;SDS011;11310;51.528;21.204;2023-01-28T06:53:28;42.58;;;17.92;;
22282;SDS011;11310;51.528;21.204;2023-01-28T06:55:57;42.92;;;17.92;;
22282;SDS011;11310;51.528;21.204;2023-01-28T06:58:27;39.53;;;17.00;;
22282;SDS011;11310;51.528;21.204;2023-01-28T07:00:56;43.63;;;17.85;;
22282;SDS011;11310;51.528;21.204;2023-01-28T07:03:24;44.17;;;18.73;;
22282;SDS011;11310;51.528;21.204;2023-01-28T07:05:53;45.20;;;19.50;;
22282;SDS011;11310;51.528;21.204;2023-01-28T07:08:21;46.75;;;19.02;;
22282;SDS011;11310;51.528;21.204;2023-01-28T07:10:50;44.75;;;19.60;;
22282;SDS011;11310;51.528;21.204;2023-01-28T07:13:18;44.60;;;18.45;;
22282;SDS011;11310;51.528;21.204;2023-01-28T07:15:48;45.58;;;19.63;;
22282;SDS011;11310;51.528;21.204;2023-01-28T07:18:17;51.13;;;19.63;;
22282;SDS011;11310;51.528;21.204;2023-01-28T07:20:45;46.28;;;19.35;;
22282;SDS011;11310;51.528;21.204;2023-01-28T07:23:14;53.20;;;20.17;;
22282;SDS011;11310;51.528;21.204;2023-01-28T07:25:42;49.17;;;21.95;;
22282;SDS011;11310;51.528;21.204;2023-01-28T07:28:11;52.10;;;20.73;;
22282;SDS011;11310;51.528;21.204;2023-01-28T07:30:40;45.72;;;20.73;;
22282;SDS011;11310;51.528;21.204;2023-01-28T07:33:09;54.88;;;22.85;;
22282;SDS011;11310;51.528;21.204;2023-01-28T07:35:38;46.63;;;20.10;;
22282;SDS011;11310;51.528;21.204;2023-01-28T07:38:06;54.42;;;19.90;;
22282;SDS011;11310;51.528;21.204;2023-01-28T07:40:35;49.13;;;19.23;;
22282;SDS011;11310;51.528;21.204;2023-01-28T07:43:03;47.15;;;19.67;;
22282;SDS011;11310;51.528;21.204;2023-01-28T07:45:36;45.88;;;20.20;;
22282;SDS011;11310;51.528;21.204;2023-01-28T07:48:06;51.70;;;20.88;;
22282;SDS011;11310;51.528;21.204;2023-01-28T07:50:38;50.60;;;21.35;;
22282;SDS011;11310;51.528;21.204;2023-01-28T07:53:08;49.63;;;19.95;;
22282;SDS011;11310;51.528;21.204;2023-01-28T07:55:37;49.20;;;20.35;;
22282;SDS011;11310;51.528;21.204;2023-01-28T07:58:06;56.03;;;21.60;;
22282;SDS011;11310;51.528;21.204;2023-01-28T08:00:37;47.20;;;19.00;;
22282;SDS011;11310;51.528;21.204;2023-01-28T08:03:06;44.60;;;19.77;;
22282;SDS011;11310;51.528;21.204;2023-01-28T08:05:41;48.35;;;20.23;;
22282;SDS011;11310;51.528;21.204;2023-01-28T08:08:12;49.63;;;21.88;;
22282;SDS011;11310;51.528;21.204;2023-01-28T08:10:42;47.88;;;20.33;;
22282;SDS011;11310;51.528;21.204;2023-01-28T08:13:11;50.00;;;21.40;;
22282;SDS011;11310;51.528;21.204;2023-01-28T08:15:40;49.28;;;20.58;;
22282;SDS011;11310;51.528;21.204;2023-01-28T08:18:10;48.35;;;20.30;;
22282;SDS011;11310;51.528;21.204;2023-01-28T08:20:42;45.45;;;20.52;;
22282;SDS011;11310;51.528;21.204;2023-01-28T08:23:13;52.90;;;21.92;;
22282;SDS011;11310;51.528;21.204;2023-01-28T08:25:43;50.30;;;21.30;;
22282;SDS011;11310;51.528;21.204;2023-01-28T08:28:12;52.40;;;20.85;;
22282;SDS011;11310;51.528;21.204;2023-01-28T08:30:41;46.45;;;21.38;;
22282;SDS011;11310;51.528;21.204;2023-01-28T08:33:11;49.80;;;20.02;;
22282;SDS011;11310;51.528;21.204;2023-01-28T08:35:42;45.88;;;19.73;;
22282;SDS011;11310;51.528;21.204;2023-01-28T08:38:11;44.17;;;19.20;;
22282;SDS011;11310;51.528;21.204;2023-01-28T08:40:46;52.25;;;21.60;;
22282;SDS011;11310;51.528;21.204;2023-01-28T08:43:16;50.70;;;21.08;;
22282;SDS011;11310;51.528;21.204;2023-01-28T08:45:44;53.35;;;21.65;;
22282;SDS011;11310;51.528;21.204;2023-01-28T08:48:14;47.85;;;20.90;;
22282;SDS011;11310;51.528;21.204;2023-01-28T08:50:46;50.85;;;21.15;;
22282;SDS011;11310;51.528;21.204;2023-01-28T08:53:17;51.03;;;19.50;;
22282;SDS011;11310;51.528;21.204;2023-01-28T08:55:47;49.00;;;20.73;;
22282;SDS011;11310;51.528;21.204;2023-01-28T08:58:16;47.53;;;20.25;;
22282;SDS011;11310;51.528;21.204;2023-01-28T09:00:45;45.25;;;21.02;;
22282;SDS011;11310;51.528;21.204;2023-01-28T09:03:14;51.50;;;21.27;;
22282;SDS011;11310;51.528;21.204;2023-01-28T09:05:43;44.00;;;20.05;;
22282;SDS011;11310;51.528;21.204;2023-01-28T09:08:13;46.72;;;19.90;;
22282;SDS011;11310;51.528;21.204;2023-01-28T09:10:42;50.47;;;20.88;;
22282;SDS011;11310;51.528;21.204;2023-01-28T09:13:12;50.80;;;20.05;;
22282;SDS011;11310;51.528;21.204;2023-01-28T09:15:41;47.78;;;19.85;;
22282;SDS011;11310;51.528;21.204;2023-01-28T09:18:10;49.97;;;20.35;;
22282;SDS011;11310;51.528;21.204;2023-01-28T09:20:39;48.33;;;20.13;;
22282;SDS011;11310;51.528;21.204;2023-01-28T09:23:07;46.47;;;20.08;;
22282;SDS011;11310;51.528;21.204;2023-01-28T09:25:38;45.63;;;19.92;;
22282;SDS011;11310;51.528;21.204;2023-01-28T09:28:06;50.45;;;18.77;;
22282;SDS011;11310;51.528;21.204;2023-01-28T09:30:35;47.72;;;20.30;;
22282;SDS011;11310;51.528;21.204;2023-01-28T09:33:05;51.67;;;20.40;;
22282;SDS011;11310;51.528;21.204;2023-01-28T09:35:34;44.75;;;19.13;;
22282;SDS011;11310;51.528;21.204;2023-01-28T09:38:03;46.20;;;19.88;;
22282;SDS011;11310;51.528;21.204;2023-01-28T09:40:34;43.03;;;18.65;;
22282;SDS011;11310;51.528;21.204;2023-01-28T09:45:47;43.47;;;18.02;;
22282;SDS011;11310;51.528;21.204;2023-01-28T09:48:18;44.33;;;18.93;;
22282;SDS011;11310;51.528;21.204;2023-01-28T09:50:50;45.40;;;18.73;;
22282;SDS011;11310;51.528;21.204;2023-01-28T09:53:22;46.53;;;19.83;;
22282;SDS011;11310;51.528;21.204;2023-01-28T09:55:53;46.63;;;20.08;;
22282;SDS011;11310;51.528;21.204;2023-01-28T09:58:25;47.42;;;19.15;;
22282;SDS011;11310;51.528;21.204;2023-01-28T10:00:55;45.47;;;18.30;;
22282;SDS011;11310;51.528;21.204;2023-01-28T10:03:37;44.53;;;19.10;;
22282;SDS011;11310;51.528;21.204;2023-01-28T10:06:17;43.25;;;18.00;;
22282;SDS011;11310;51.528;21.204;2023-01-28T10:08:59;46.47;;;19.17;;
22282;SDS011;11310;51.528;21.204;2023-01-28T10:11:42;42.17;;;18.27;;
22282;SDS011;11310;51.528;21.204;2023-01-28T10:16:57;45.75;;;18.80;;
22282;SDS011;11310;51.528;21.204;2023-01-28T10:19:35;47.90;;;18.15;;
22282;SDS011;11310;51.528;21.204;2023-01-28T10:22:08;38.20;;;17.00;;
22282;SDS011;11310;51.528;21.204;2023-01-28T10:24:44;38.00;;;15.75;;
22282;SDS011;11310;51.528;21.204;2023-01-28T10:27:18;40.22;;;17.08;;
22282;SDS011;11310;51.528;21.204;2023-01-28T10:32:21;34.53;;;15.60;;
22282;SDS011;11310;51.528;21.204;2023-01-28T10:34:53;38.17;;;16.67;;
22282;SDS011;11310;51.528;21.204;2023-01-28T10:37:26;40.13;;;16.63;;
22282;SDS011;11310;51.528;21.204;2023-01-28T10:39:56;41.85;;;16.80;;
22282;SDS011;11310;51.528;21.204;2023-01-28T10:42:27;43.38;;;18.77;;
22282;SDS011;11310;51.528;21.204;2023-01-28T10:44:58;40.85;;;16.05;;
22282;SDS011;11310;51.528;21.204;2023-01-28T10:47:32;47.38;;;17.85;;
22282;SDS011;11310;51.528;21.204;2023-01-28T10:50:05;42.80;;;16.42;;
22282;SDS011;11310;51.528;21.204;2023-01-28T10:52:51;45.75;;;18.20;;
22282;SDS011;11310;51.528;21.204;2023-01-28T10:55:20;39.35;;;17.10;;
22282;SDS011;11310;51.528;21.204;2023-01-28T10:57:49;41.15;;;17.38;;
22282;SDS011;11310;51.528;21.204;2023-01-28T11:00:23;43.55;;;18.67;;
22282;SDS011;11310;51.528;21.204;2023-01-28T11:02:53;42.53;;;18.77;;
22282;SDS011;11310;51.528;21.204;2023-01-28T11:05:24;41.03;;;17.30;;
22282;SDS011;11310;51.528;21.204;2023-01-28T11:08:04;44.08;;;18.77;;
22282;SDS011;11310;51.528;21.204;2023-01-28T11:10:40;37.78;;;17.25;;
22282;SDS011;11310;51.528;21.204;2023-01-28T11:13:13;45.13;;;18.60;;
22282;SDS011;11310;51.528;21.204;2023-01-28T11:15:50;37.42;;;16.00;;
22282;SDS011;11310;51.528;21.204;2023-01-28T11:18:20;41.53;;;17.85;;
22282;SDS011;11310;51.528;21.204;2023-01-28T11:20:53;39.45;;;16.65;;
22282;SDS011;11310;51.528;21.204;2023-01-28T11:25:58;41.78;;;16.45;;
22282;SDS011;11310;51.528;21.204;2023-01-28T11:28:29;43.22;;;17.63;;
22282;SDS011;11310;51.528;21.204;2023-01-28T11:31:00;46.40;;;17.90;;
22282;SDS011;11310;51.528;21.204;2023-01-28T11:33:31;40.78;;;17.35;;
22282;SDS011;11310;51.528;21.204;2023-01-28T11:36:05;43.13;;;16.65;;
22282;SDS011;11310;51.528;21.204;2023-01-28T11:38:35;43.10;;;16.10;;
22282;SDS011;11310;51.528;21.204;2023-01-28T11:41:15;41.95;;;16.60;;
22282;SDS011;11310;51.528;21.204;2023-01-28T11:43:43;41.92;;;17.45;;
22282;SDS011;11310;51.528;21.204;2023-01-28T11:46:20;48.97;;;19.45;;
22282;SDS011;11310;51.528;21.204;2023-01-28T11:49:04;45.03;;;18.70;;
22282;SDS011;11310;51.528;21.204;2023-01-28T11:51:41;46.53;;;18.95;;
22282;SDS011;11310;51.528;21.204;2023-01-28T11:54:18;41.20;;;18.08;;
22282;SDS011;11310;51.528;21.204;2023-01-28T11:57:03;46.13;;;17.75;;
22282;SDS011;11310;51.528;21.204;2023-01-28T11:59:55;44.08;;;17.05;;
22282;SDS011;11310;51.528;21.204;2023-01-28T12:02:41;45.00;;;17.98;;
22282;SDS011;11310;51.528;21.204;2023-01-28T12:08:08;39.70;;;16.33;;
22282;SDS011;11310;51.528;21.204;2023-01-28T12:10:47;45.22;;;18.33;;
22282;SDS011;11310;51.528;21.204;2023-01-28T12:13:32;43.33;;;17.83;;
22282;SDS011;11310;51.528;21.204;2023-01-28T12:19:11;46.47;;;17.45;;
22282;SDS011;11310;51.528;21.204;2023-01-28T12:21:57;44.22;;;18.40;;
22282;SDS011;11310;51.528;21.204;2023-01-28T12:24:48;46.30;;;17.52;;
22282;SDS011;11310;51.528;21.204;2023-01-28T12:27:33;45.95;;;16.95;;
22282;SDS011;11310;51.528;21.204;2023-01-28T12:30:18;44.83;;;18.10;;
22282;SDS011;11310;51.528;21.204;2023-01-28T12:32:56;47.38;;;20.10;;
22282;SDS011;11310;51.528;21.204;2023-01-28T12:35:42;45.55;;;17.70;;
22282;SDS011;11310;51.528;21.204;2023-01-28T12:38:23;51.35;;;19.58;;
22282;SDS011;11310;51.528;21.204;2023-01-28T12:41:04;47.53;;;18.10;;
22282;SDS011;11310;51.528;21.204;2023-01-28T12:43:56;45.92;;;18.27;;
22282;SDS011;11310;51.528;21.204;2023-01-28T12:46:36;48.40;;;18.52;;
22282;SDS011;11310;51.528;21.204;2023-01-28T12:49:11;48.60;;;18.10;;
22282;SDS011;11310;51.528;21.204;2023-01-28T12:51:57;49.63;;;19.63;;
22282;SDS011;11310;51.528;21.204;2023-01-28T12:54:38;50.10;;;19.30;;
22282;SDS011;11310;51.528;21.204;2023-01-28T12:57:12;53.80;;;19.40;;
22282;SDS011;11310;51.528;21.204;2023-01-28T12:59:45;49.53;;;19.10;;
22282;SDS011;11310;51.528;21.204;2023-01-28T13:02:23;52.60;;;20.40;;
22282;SDS011;11310;51.528;21.204;2023-01-28T13:04:59;49.58;;;20.40;;
22282;SDS011;11310;51.528;21.204;2023-01-28T13:07:36;52.28;;;20.48;;
22282;SDS011;11310;51.528;21.204;2023-01-28T13:10:18;54.35;;;21.58;;
22282;SDS011;11310;51.528;21.204;2023-01-28T13:12:52;56.65;;;21.95;;
22282;SDS011;11310;51.528;21.204;2023-01-28T13:15:21;50.78;;;21.52;;
22282;SDS011;11310;51.528;21.204;2023-01-28T13:17:55;52.00;;;19.67;;
22282;SDS011;11310;51.528;21.204;2023-01-28T13:20:30;47.88;;;18.73;;
22282;SDS011;11310;51.528;21.204;2023-01-28T13:23:22;46.95;;;19.27;;
22282;SDS011;11310;51.528;21.204;2023-01-28T13:29:16;49.85;;;19.00;;
22282;SDS011;11310;51.528;21.204;2023-01-28T13:31:52;48.78;;;18.88;;
22282;SDS011;11310;51.528;21.204;2023-01-28T13:34:32;44.85;;;18.35;;
22282;SDS011;11310;51.528;21.204;2023-01-28T13:37:16;42.15;;;16.48;;
22282;SDS011;11310;51.528;21.204;2023-01-28T13:40:02;39.38;;;15.60;;
22282;SDS011;11310;51.528;21.204;2023-01-28T13:42:45;43.60;;;15.07;;
22282;SDS011;11310;51.528;21.204;2023-01-28T13:45:28;46.08;;;21.98;;
22282;SDS011;11310;51.528;21.204;2023-01-28T13:48:05;39.65;;;15.73;;
22282;SDS011;11310;51.528;21.204;2023-01-28T13:50:51;34.97;;;14.38;;
22282;SDS011;11310;51.528;21.204;2023-01-28T13:53:28;30.90;;;13.45;;
22282;SDS011;11310;51.528;21.204;2023-01-28T13:56:14;35.88;;;14.52;;
22282;SDS011;11310;51.528;21.204;2023-01-28T14:01:56;30.35;;;12.90;;
22282;SDS011;11310;51.528;21.204;2023-01-28T14:04:55;31.08;;;13.15;;
22282;SDS011;11310;51.528;21.204;2023-01-28T14:07:39;31.15;;;13.32;;
22282;SDS011;11310;51.528;21.204;2023-01-28T14:10:32;31.95;;;11.98;;
22282;SDS011;11310;51.528;21.204;2023-01-28T14:13:14;27.75;;;12.43;;
22282;SDS011;11310;51.528;21.204;2023-01-28T14:16:18;27.48;;;12.07;;
22282;SDS011;11310;51.528;21.204;2023-01-28T14:18:55;34.80;;;13.50;;
22282;SDS011;11310;51.528;21.204;2023-01-28T14:21:27;27.98;;;12.65;;
22282;SDS011;11310;51.528;21.204;2023-01-28T14:24:01;33.13;;;14.50;;
22282;SDS011;11310;51.528;21.204;2023-01-28T14:26:35;27.10;;;13.27;;
22282;SDS011;11310;51.528;21.204;2023-01-28T14:29:15;28.48;;;14.80;;
22282;SDS011;11310;51.528;21.204;2023-01-28T14:31:53;35.13;;;15.55;;
22282;SDS011;11310;51.528;21.204;2023-01-28T14:34:23;30.13;;;13.15;;
22282;SDS011;11310;51.528;21.204;2023-01-28T14:36:55;35.08;;;13.57;;
22282;SDS011;11310;51.528;21.204;2023-01-28T14:39:36;35.40;;;14.23;;
22282;SDS011;11310;51.528;21.204;2023-01-28T14:42:12;33.42;;;14.68;;
22282;SDS011;11310;51.528;21.204;2023-01-28T14:44:47;36.95;;;16.20;;
22282;SDS011;11310;51.528;21.204;2023-01-28T14:47:28;38.50;;;16.75;;
22282;SDS011;11310;51.528;21.204;2023-01-28T14:53:17;35.60;;;16.73;;
22282;SDS011;11310;51.528;21.204;2023-01-28T14:55:55;36.78;;;15.75;;
22282;SDS011;11310;51.528;21.204;2023-01-28T14:58:29;36.28;;;16.20;;
22282;SDS011;11310;51.528;21.204;2023-01-28T15:01:03;29.65;;;14.13;;
22282;SDS011;11310;51.528;21.204;2023-01-28T15:03:33;31.48;;;14.25;;
22282;SDS011;11310;51.528;21.204;2023-01-28T15:06:03;30.83;;;13.90;;
22282;SDS011;11310;51.528;21.204;2023-01-28T15:08:33;29.53;;;13.20;;
22282;SDS011;11310;51.528;21.204;2023-01-28T15:11:02;34.03;;;13.60;;
22282;SDS011;11310;51.528;21.204;2023-01-28T15:13:35;33.55;;;14.00;;
22282;SDS011;11310;51.528;21.204;2023-01-28T15:16:11;36.22;;;15.10;;
22282;SDS011;11310;51.528;21.204;2023-01-28T15:18:44;42.17;;;17.30;;
22282;SDS011;11310;51.528;21.204;2023-01-28T15:21:17;44.47;;;18.85;;